createdAt,value
2022-08-27T00:00:40.397Z,19.60
2022-08-27T00:01:44.861Z,19.60
2022-08-27T00:02:49.294Z,19.60
2022-08-27T00:03:53.938Z,19.50
2022-08-27T00:04:58.013Z,19.60
2022-08-27T00:06:00.129Z,19.50
2022-08-27T00:07:03.857Z,19.60
2022-08-27T00:08:06.812Z,19.50
2022-08-27T00:09:10.025Z,19.50
2022-08-27T00:10:22.015Z,19.60
2022-08-27T00:11:26.382Z,19.60
2022-08-27T00:12:28.685Z,19.60
2022-08-27T00:13:31.654Z,19.60
2022-08-27T00:14:35.235Z,19.60
2022-08-27T00:15:38.458Z,19.60
2022-08-27T00:16:40.831Z,19.60
2022-08-27T00:17:46.769Z,19.60
2022-08-27T00:18:49.125Z,19.60
2022-08-27T00:19:52.189Z,19.60
2022-08-27T00:20:54.261Z,19.70
2022-08-27T00:21:57.402Z,19.60
2022-08-27T00:22:59.770Z,19.60
2022-08-27T00:24:02.955Z,19.60
2022-08-27T00:25:05.709Z,19.60
2022-08-27T00:26:10.267Z,19.50
2022-08-27T00:27:12.517Z,19.50
2022-08-27T00:28:15.875Z,19.50
2022-08-27T00:29:17.924Z,19.50
2022-08-27T00:30:23.685Z,19.50
2022-08-27T00:31:27.384Z,19.50
2022-08-27T00:32:30.744Z,19.50
2022-08-27T00:33:34.721Z,19.50
2022-08-27T00:34:37.627Z,19.50
2022-08-27T00:35:39.611Z,19.50
2022-08-27T00:36:43.507Z,19.50
2022-08-27T00:37:45.999Z,19.50
2022-08-27T00:38:49.484Z,19.50
2022-08-27T00:39:56.085Z,19.50
2022-08-27T00:41:01.185Z,19.50
2022-08-27T00:42:03.590Z,19.50
2022-08-27T00:43:06.936Z,19.50
2022-08-27T00:44:10.163Z,19.50
2022-08-27T00:45:16.851Z,19.50
2022-08-27T00:46:23.641Z,19.50
2022-08-27T00:47:30.343Z,19.50
2022-08-27T00:48:38.638Z,19.50
2022-08-27T00:49:46.056Z,19.60
2022-08-27T00:50:52.610Z,19.60
2022-08-27T00:52:00.522Z,19.70
2022-08-27T00:53:07.558Z,19.60
2022-08-27T00:54:10.637Z,19.70
2022-08-27T00:55:21.436Z,19.60
2022-08-27T00:56:27.629Z,19.60
2022-08-27T00:57:30.640Z,19.60
2022-08-27T00:58:36.290Z,19.60
2022-08-27T00:59:40.189Z,19.60
2022-08-27T01:00:43.699Z,19.60
2022-08-27T01:02:01.839Z,19.60
2022-08-27T01:03:05.173Z,19.60
2022-08-27T01:04:08.484Z,19.60
2022-08-27T01:05:15.253Z,19.60
2022-08-27T01:06:19.950Z,19.60
2022-08-27T01:07:24.358Z,19.60
2022-08-27T01:08:34.086Z,19.60
2022-08-27T01:09:37.887Z,19.50
2022-08-27T01:10:42.706Z,19.50
2022-08-27T01:11:47.804Z,19.50
2022-08-27T01:12:54.079Z,19.50
2022-08-27T01:13:59.644Z,19.50
2022-08-27T01:15:08.483Z,19.50
2022-08-27T01:16:18.441Z,19.50
2022-08-27T01:17:21.446Z,19.50
2022-08-27T01:18:23.711Z,19.50
2022-08-27T01:19:33.850Z,19.50
2022-08-27T01:20:41.146Z,19.50
2022-08-27T01:21:49.319Z,19.60
2022-08-27T01:23:01.502Z,19.50
2022-08-27T01:24:12.649Z,19.60
2022-08-27T01:25:19.244Z,19.60
2022-08-27T01:26:22.975Z,19.60
2022-08-27T01:27:28.079Z,19.60
2022-08-27T01:28:32.127Z,19.60
2022-08-27T01:29:41.485Z,19.60
2022-08-27T01:30:44.754Z,19.60
2022-08-27T01:31:48.118Z,19.60
2022-08-27T01:32:51.839Z,19.60
2022-08-27T01:33:56.159Z,19.60
2022-08-27T01:35:00.584Z,19.60
2022-08-27T01:36:03.533Z,19.60
2022-08-27T01:37:07.165Z,19.60
2022-08-27T01:38:18.955Z,19.60
2022-08-27T01:39:35.237Z,19.60
2022-08-27T01:40:39.794Z,19.60
2022-08-27T01:41:43.739Z,19.60
2022-08-27T01:42:49.140Z,19.60
2022-08-27T01:43:51.585Z,19.60
2022-08-27T01:44:58.909Z,19.60
2022-08-27T01:46:01.057Z,19.60
2022-08-27T01:47:04.113Z,19.60
2022-08-27T01:48:07.707Z,19.50
2022-08-27T01:49:11.669Z,19.50
2022-08-27T01:50:17.506Z,19.50
2022-08-27T01:51:20.891Z,19.50
2022-08-27T01:52:26.220Z,19.50
2022-08-27T01:53:29.179Z,19.50
2022-08-27T01:54:32.385Z,19.60
2022-08-27T01:55:36.046Z,19.60
2022-08-27T01:56:39.386Z,19.60
2022-08-27T01:57:43.022Z,19.60
2022-08-27T01:58:45.572Z,19.50
2022-08-27T01:59:49.273Z,19.50
2022-08-27T02:00:56.843Z,19.50
2022-08-27T02:02:00.554Z,19.60
2022-08-27T02:03:03.427Z,19.60
2022-08-27T02:04:06.317Z,19.60
2022-08-27T02:05:09.089Z,19.60
2022-08-27T02:06:13.699Z,19.60
2022-08-27T02:07:15.792Z,19.60
2022-08-27T02:08:20.231Z,19.60
2022-08-27T02:09:22.391Z,19.60
2022-08-27T02:10:28.313Z,19.60
2022-08-27T02:11:32.737Z,19.60
2022-08-27T02:12:37.416Z,19.60
2022-08-27T02:13:39.552Z,19.60
2022-08-27T02:14:42.723Z,19.60
2022-08-27T02:15:45.741Z,19.60
2022-08-27T02:16:52.638Z,19.60
2022-08-27T02:17:55.648Z,19.60
2022-08-27T02:18:58.740Z,19.60
2022-08-27T02:20:02.043Z,19.70
2022-08-27T02:21:05.983Z,19.70
2022-08-27T02:22:08.352Z,19.70
2022-08-27T02:23:12.458Z,19.70
2022-08-27T02:24:14.440Z,19.70
2022-08-27T02:25:19.974Z,19.70
2022-08-27T02:26:22.849Z,19.70
2022-08-27T02:27:26.140Z,19.80
2022-08-27T02:28:29.608Z,19.80
2022-08-27T02:29:34.537Z,19.80
2022-08-27T02:30:37.645Z,19.80
2022-08-27T02:31:42.313Z,19.80
2022-08-27T02:32:47.289Z,19.80
2022-08-27T02:33:50.542Z,19.80
2022-08-27T02:34:52.594Z,19.80
2022-08-27T02:35:56.406Z,19.80
2022-08-27T02:36:58.668Z,19.80
2022-08-27T02:38:02.075Z,19.80
2022-08-27T02:39:05.420Z,19.80
2022-08-27T02:40:09.956Z,19.70
2022-08-27T02:41:12.514Z,19.70
2022-08-27T02:42:15.458Z,19.70
2022-08-27T02:43:25.219Z,19.70
2022-08-27T02:44:31.976Z,19.80
2022-08-27T02:45:36.613Z,19.70
2022-08-27T02:46:40.720Z,19.80
2022-08-27T02:47:42.737Z,19.80
2022-08-27T02:48:45.833Z,19.70
2022-08-27T02:49:47.890Z,19.70
2022-08-27T02:50:51.425Z,19.70
2022-08-27T02:51:54.263Z,19.70
2022-08-27T02:52:57.854Z,19.70
2022-08-27T02:54:00.513Z,19.80
2022-08-27T02:55:07.696Z,19.90
2022-08-27T02:56:10.777Z,19.90
2022-08-27T02:57:16.090Z,19.90
2022-08-27T02:58:18.262Z,19.90
2022-08-27T02:59:21.753Z,19.90
2022-08-27T03:00:28.666Z,19.90
2022-08-27T03:01:31.658Z,19.90
2022-08-27T03:02:34.131Z,19.90
2022-08-27T03:03:37.384Z,19.90
2022-08-27T03:04:41.989Z,19.90
2022-08-27T03:05:45.280Z,19.90
2022-08-27T03:06:47.455Z,20.00
2022-08-27T03:07:50.682Z,20.00
2022-08-27T03:08:53.604Z,20.00
2022-08-27T03:09:56.795Z,20.00
2022-08-27T03:10:59.014Z,20.00
2022-08-27T03:12:02.587Z,20.00
2022-08-27T03:13:05.739Z,20.00
2022-08-27T03:14:08.981Z,20.00
2022-08-27T03:15:13.751Z,20.00
2022-08-27T03:16:18.638Z,19.90
2022-08-27T03:17:39.519Z,19.90
2022-08-27T03:18:41.805Z,19.90
2022-08-27T03:19:45.032Z,20.00
2022-08-27T03:20:49.912Z,20.00
2022-08-27T03:21:54.882Z,19.90
2022-08-27T03:22:57.059Z,20.00
2022-08-27T03:24:11.162Z,20.00
2022-08-27T03:25:13.850Z,20.00
2022-08-27T03:26:18.333Z,20.00
2022-08-27T03:27:20.284Z,20.00
2022-08-27T03:28:25.953Z,20.00
2022-08-27T03:29:28.310Z,20.00
2022-08-27T03:30:31.448Z,20.00
2022-08-27T03:31:35.579Z,20.00
2022-08-27T03:32:39.352Z,20.00
2022-08-27T03:33:42.573Z,20.00
2022-08-27T03:34:45.768Z,20.00
2022-08-27T03:35:51.734Z,20.10
2022-08-27T03:36:55.318Z,20.00
2022-08-27T03:37:57.352Z,20.00
2022-08-27T03:39:00.269Z,20.10
2022-08-27T03:40:04.090Z,20.00
2022-08-27T03:41:07.781Z,20.00
2022-08-27T03:42:10.609Z,20.00
2022-08-27T03:43:14.327Z,20.00
2022-08-27T03:44:21.545Z,20.10
2022-08-27T03:45:27.173Z,20.10
2022-08-27T03:46:31.071Z,20.00
2022-08-27T03:47:35.544Z,20.00
2022-08-27T03:48:38.049Z,20.10
2022-08-27T03:49:41.013Z,20.10
2022-08-27T03:50:46.743Z,20.10
2022-08-27T03:51:50.292Z,20.10
2022-08-27T03:52:52.343Z,20.10
2022-08-27T03:53:56.054Z,20.10
2022-08-27T03:54:59.443Z,20.10
2022-08-27T03:56:02.536Z,20.10
2022-08-27T03:57:05.032Z,20.10
2022-08-27T03:58:08.051Z,20.10
2022-08-27T03:59:10.148Z,20.10
2022-08-27T04:00:14.244Z,20.10
2022-08-27T04:01:17.650Z,20.10
2022-08-27T04:02:20.681Z,20.10
2022-08-27T04:03:24.373Z,20.10
2022-08-27T04:04:27.970Z,20.10
2022-08-27T04:05:30.071Z,20.10
2022-08-27T04:06:34.859Z,20.10
2022-08-27T04:07:37.409Z,20.00
2022-08-27T04:08:40.420Z,20.10
2022-08-27T04:09:42.506Z,20.10
2022-08-27T04:10:46.628Z,20.10
2022-08-27T04:11:48.633Z,20.10
2022-08-27T04:12:51.656Z,20.10
2022-08-27T04:13:57.383Z,20.10
2022-08-27T04:15:00.542Z,20.10
2022-08-27T04:16:05.279Z,20.10
2022-08-27T04:17:08.328Z,20.10
2022-08-27T04:18:10.508Z,20.10
2022-08-27T04:19:15.021Z,20.10
2022-08-27T04:20:34.486Z,20.10
2022-08-27T04:21:38.947Z,20.10
2022-08-27T04:22:40.961Z,20.20
2022-08-27T04:23:44.406Z,20.20
2022-08-27T04:24:46.950Z,20.20
2022-08-27T04:25:50.140Z,20.20
2022-08-27T04:26:52.287Z,20.20
2022-08-27T04:27:55.222Z,20.20
2022-08-27T04:29:00.781Z,20.20
2022-08-27T04:30:04.952Z,20.20
2022-08-27T04:31:12.861Z,20.20
2022-08-27T04:32:19.906Z,20.20
2022-08-27T04:33:22.215Z,20.20
2022-08-27T04:34:26.572Z,20.20
2022-08-27T04:35:28.834Z,20.20
2022-08-27T04:36:31.907Z,20.20
2022-08-27T04:37:34.546Z,20.20
2022-08-27T04:38:38.260Z,20.20
2022-08-27T04:39:40.213Z,20.20
2022-08-27T04:41:00.987Z,20.20
2022-08-27T04:42:04.037Z,20.20
2022-08-27T04:43:06.192Z,20.20
2022-08-27T04:44:10.636Z,20.30
2022-08-27T04:45:12.742Z,20.20
2022-08-27T04:46:19.874Z,20.20
2022-08-27T04:47:24.449Z,20.20
2022-08-27T04:48:26.652Z,20.30
2022-08-27T04:49:31.679Z,20.30
2022-08-27T04:50:40.680Z,20.40
2022-08-27T04:51:44.342Z,20.30
2022-08-27T04:52:47.770Z,20.30
2022-08-27T04:53:51.475Z,20.30
2022-08-27T04:54:55.168Z,20.30
2022-08-27T04:55:57.793Z,20.30
2022-08-27T04:57:01.022Z,20.40
2022-08-27T04:58:03.193Z,20.30
2022-08-27T04:59:08.130Z,20.30
2022-08-27T05:00:11.990Z,20.30
2022-08-27T05:01:16.983Z,20.40
2022-08-27T05:02:20.284Z,20.40
2022-08-27T05:03:24.176Z,20.40
2022-08-27T05:04:27.258Z,20.40
2022-08-27T05:05:30.644Z,20.40
2022-08-27T05:06:34.276Z,20.40
2022-08-27T05:07:36.588Z,20.40
2022-08-27T05:08:40.002Z,20.40
2022-08-27T05:09:43.133Z,20.40
2022-08-27T05:10:47.533Z,20.40
2022-08-27T05:11:52.123Z,20.40
2022-08-27T05:12:58.047Z,20.40
2022-08-27T05:14:04.674Z,20.40
2022-08-27T05:15:08.529Z,20.30
2022-08-27T05:16:12.608Z,20.30
2022-08-27T05:17:15.645Z,20.40
2022-08-27T05:18:17.998Z,20.40
2022-08-27T05:19:21.780Z,20.30
2022-08-27T05:20:24.105Z,20.30
2022-08-27T05:21:31.741Z,20.30
2022-08-27T05:22:33.780Z,20.30
2022-08-27T05:23:37.426Z,20.30
2022-08-27T05:24:41.554Z,20.30
2022-08-27T05:25:45.875Z,20.30
2022-08-27T05:26:49.045Z,20.30
2022-08-27T05:27:51.165Z,20.30
2022-08-27T05:28:54.577Z,20.30
2022-08-27T05:29:56.940Z,20.30
2022-08-27T05:31:05.911Z,20.30
2022-08-27T05:32:07.994Z,20.20
2022-08-27T05:33:12.032Z,20.30
2022-08-27T05:34:24.688Z,20.20
2022-08-27T05:35:29.239Z,20.20
2022-08-27T05:36:35.973Z,20.20
2022-08-27T05:37:38.000Z,20.20
2022-08-27T05:38:42.499Z,20.30
2022-08-27T05:39:45.878Z,20.20
2022-08-27T05:40:48.749Z,20.30
2022-08-27T05:41:53.659Z,20.20
2022-08-27T05:42:55.898Z,20.30
2022-08-27T05:44:13.754Z,20.20
2022-08-27T05:45:27.024Z,20.30
2022-08-27T05:46:29.384Z,20.30
2022-08-27T05:47:32.589Z,20.30
2022-08-27T05:48:41.312Z,20.30
2022-08-27T05:49:44.786Z,20.30
2022-08-27T05:50:46.880Z,20.30
2022-08-27T05:51:51.194Z,20.30
2022-08-27T05:52:53.527Z,20.30
2022-08-27T05:53:58.347Z,20.30
2022-08-27T05:55:00.504Z,20.20
2022-08-27T05:56:03.736Z,20.30
2022-08-27T05:57:06.938Z,20.30
2022-08-27T05:58:29.481Z,20.20
2022-08-27T05:59:49.886Z,20.20
2022-08-27T06:01:10.082Z,20.20
2022-08-27T06:02:13.714Z,20.20
2022-08-27T06:03:15.869Z,20.20
2022-08-27T06:04:20.469Z,20.20
2022-08-27T06:05:22.508Z,20.20
2022-08-27T06:06:25.689Z,20.30
2022-08-27T06:07:29.808Z,20.30
2022-08-27T06:08:33.268Z,20.40
2022-08-27T06:09:35.361Z,20.40
2022-08-27T06:10:41.062Z,20.40
2022-08-27T06:11:43.110Z,20.30
2022-08-27T06:12:46.078Z,20.30
2022-08-27T06:13:48.344Z,20.40
2022-08-27T06:14:51.690Z,20.30
2022-08-27T06:16:01.732Z,20.30
2022-08-27T06:17:06.307Z,20.30
2022-08-27T06:18:08.584Z,20.40
2022-08-27T06:19:12.548Z,20.30
2022-08-27T06:20:14.732Z,20.40
2022-08-27T06:21:24.302Z,20.40
2022-08-27T06:22:27.798Z,20.40
2022-08-27T06:23:31.648Z,20.40
2022-08-27T06:24:34.823Z,20.40
2022-08-27T06:25:40.586Z,20.50
2022-08-27T06:26:44.778Z,20.50
2022-08-27T06:27:46.901Z,20.50
2022-08-27T06:28:50.612Z,20.50
2022-08-27T06:29:53.594Z,20.50
2022-08-27T06:31:03.261Z,20.50
2022-08-27T06:32:06.593Z,20.50
2022-08-27T06:33:08.647Z,20.50
2022-08-27T06:34:12.452Z,20.50
2022-08-27T06:35:14.775Z,20.50
2022-08-27T06:36:20.649Z,20.50
2022-08-27T06:37:22.741Z,20.50
2022-08-27T06:38:26.665Z,20.50
2022-08-27T06:39:32.437Z,20.50
2022-08-27T06:40:34.841Z,20.60
2022-08-27T06:41:37.856Z,20.60
2022-08-27T06:42:46.189Z,20.60
2022-08-27T06:43:49.348Z,20.60
2022-08-27T06:44:51.527Z,20.60
2022-08-27T06:45:54.711Z,20.60
2022-08-27T06:46:56.700Z,20.70
2022-08-27T06:47:59.756Z,20.70
2022-08-27T06:49:01.945Z,20.60
2022-08-27T06:50:05.634Z,20.60
2022-08-27T06:51:09.277Z,20.60
2022-08-27T06:52:12.243Z,20.60
2022-08-27T06:53:14.586Z,20.60
2022-08-27T06:54:20.005Z,20.60
2022-08-27T06:55:23.406Z,20.50
2022-08-27T06:56:26.545Z,20.50
2022-08-27T06:57:29.479Z,20.50
2022-08-27T06:58:31.884Z,20.50
2022-08-27T06:59:34.861Z,20.50
2022-08-27T07:00:38.834Z,20.50
2022-08-27T07:01:43.951Z,20.50
2022-08-27T07:02:46.079Z,20.50
2022-08-27T07:03:49.330Z,20.50
2022-08-27T07:04:53.901Z,20.50
2022-08-27T07:06:05.276Z,20.50
2022-08-27T07:07:08.208Z,20.40
2022-08-27T07:08:11.266Z,20.40
2022-08-27T07:09:14.945Z,20.40
2022-08-27T07:10:17.089Z,20.50
2022-08-27T07:11:22.018Z,20.50
2022-08-27T07:12:24.077Z,20.40
2022-08-27T07:13:33.692Z,20.50
2022-08-27T07:14:38.239Z,20.50
2022-08-27T07:15:42.457Z,20.50
2022-08-27T07:16:44.878Z,20.50
2022-08-27T07:17:49.970Z,20.50
2022-08-27T07:18:54.200Z,20.50
2022-08-27T07:19:57.319Z,20.60
2022-08-27T07:20:59.506Z,20.50
2022-08-27T07:22:02.392Z,20.50
2022-08-27T07:23:06.485Z,20.50
2022-08-27T07:24:12.702Z,20.50
2022-08-27T07:25:20.016Z,20.50
2022-08-27T07:26:24.980Z,20.50
2022-08-27T07:27:27.981Z,20.60
2022-08-27T07:28:30.001Z,20.60
2022-08-27T07:29:33.183Z,20.50
2022-08-27T07:30:37.481Z,20.50
2022-08-27T07:31:40.628Z,20.60
2022-08-27T07:32:42.932Z,20.60
2022-08-27T07:33:52.935Z,20.60
2022-08-27T07:34:56.322Z,20.60
2022-08-27T07:35:58.449Z,20.60
2022-08-27T07:37:01.524Z,20.60
2022-08-27T07:38:03.726Z,20.70
2022-08-27T07:39:07.704Z,20.70
2022-08-27T07:40:13.009Z,20.90
2022-08-27T07:41:17.011Z,20.90
2022-08-27T07:42:39.189Z,20.80
2022-08-27T07:44:00.701Z,20.90
2022-08-27T07:45:02.805Z,21.00
2022-08-27T07:46:05.868Z,21.00
2022-08-27T07:47:08.010Z,21.00
2022-08-27T07:48:11.698Z,21.00
2022-08-27T07:49:13.846Z,21.10
2022-08-27T07:50:17.341Z,21.20
2022-08-27T07:51:21.514Z,21.10
2022-08-27T07:52:26.532Z,21.20
2022-08-27T07:53:28.921Z,21.20
2022-08-27T07:54:32.156Z,21.20
2022-08-27T07:55:36.347Z,21.30
2022-08-27T07:56:39.359Z,21.30
2022-08-27T07:57:44.645Z,21.20
2022-08-27T07:58:47.812Z,21.30
2022-08-27T07:59:50.098Z,21.30
2022-08-27T08:00:56.422Z,21.30
2022-08-27T08:01:58.551Z,21.40
2022-08-27T08:03:02.599Z,21.30
2022-08-27T08:04:05.204Z,21.40
2022-08-27T08:05:10.197Z,21.40
2022-08-27T08:06:17.252Z,21.40
2022-08-27T08:07:21.089Z,21.50
2022-08-27T08:08:26.263Z,21.50
2022-08-27T08:09:33.371Z,21.60
2022-08-27T08:10:36.863Z,21.60
2022-08-27T08:11:39.318Z,21.70
2022-08-27T08:12:43.789Z,21.80
2022-08-27T08:13:46.674Z,21.90
2022-08-27T08:14:49.970Z,22.00
2022-08-27T08:15:52.475Z,22.00
2022-08-27T08:17:01.528Z,22.00
2022-08-27T08:18:04.069Z,22.00
2022-08-27T08:19:07.860Z,22.00
2022-08-27T08:20:27.563Z,22.00
2022-08-27T08:21:35.302Z,21.90
2022-08-27T08:22:38.271Z,22.00
2022-08-27T08:23:42.301Z,21.90
2022-08-27T08:24:44.552Z,21.90
2022-08-27T08:25:47.893Z,22.00
2022-08-27T08:26:50.188Z,22.00
2022-08-27T08:27:55.451Z,21.90
2022-08-27T08:29:00.482Z,21.90
2022-08-27T08:30:02.501Z,21.90
2022-08-27T08:31:05.814Z,21.90
2022-08-27T08:32:08.296Z,21.80
2022-08-27T08:33:12.898Z,21.80
2022-08-27T08:34:15.858Z,21.80
2022-08-27T08:35:20.814Z,21.70
2022-08-27T08:36:23.694Z,21.80
2022-08-27T08:37:25.917Z,21.70
2022-08-27T08:38:28.979Z,21.70
2022-08-27T08:39:30.910Z,21.70
2022-08-27T08:40:37.083Z,21.70
2022-08-27T08:41:43.306Z,21.80
2022-08-27T08:42:51.613Z,21.70
2022-08-27T08:43:57.314Z,21.70
2022-08-27T08:45:03.514Z,21.70
2022-08-27T08:46:12.923Z,21.70
2022-08-27T08:47:21.366Z,21.60
2022-08-27T08:48:26.858Z,21.70
2022-08-27T08:49:50.646Z,21.70
2022-08-27T08:50:59.205Z,21.70
2022-08-27T08:52:26.431Z,21.80
2022-08-27T08:53:44.225Z,21.80
2022-08-27T08:54:46.689Z,21.80
2022-08-27T08:55:54.210Z,21.90
2022-08-27T08:57:02.136Z,21.90
2022-08-27T08:58:17.258Z,21.90
2022-08-27T08:59:28.134Z,22.00
2022-08-27T09:00:31.643Z,22.00
2022-08-27T09:01:35.250Z,22.10
2022-08-27T09:02:37.369Z,22.10
2022-08-27T09:03:43.374Z,22.10
2022-08-27T09:04:45.739Z,22.10
2022-08-27T09:05:51.519Z,22.10
2022-08-27T09:06:58.379Z,22.10
2022-08-27T09:08:33.092Z,22.10
2022-08-27T09:09:38.825Z,22.10
2022-08-27T09:10:44.921Z,22.10
2022-08-27T09:11:55.546Z,22.10
2022-08-27T09:13:02.333Z,22.10
2022-08-27T09:14:16.698Z,22.10
2022-08-27T09:15:24.826Z,22.10
2022-08-27T09:16:28.156Z,22.10
2022-08-27T09:17:30.229Z,22.10
2022-08-27T09:18:36.871Z,22.20
2022-08-27T09:19:40.280Z,22.30
2022-08-27T09:20:46.998Z,22.30
2022-08-27T09:21:59.833Z,22.30
2022-08-27T09:23:10.598Z,22.40
2022-08-27T09:24:19.783Z,22.40
2022-08-27T09:25:29.210Z,22.50
2022-08-27T09:26:34.512Z,22.50
2022-08-27T09:27:43.267Z,22.50
2022-08-27T09:29:04.110Z,22.60
2022-08-27T09:30:11.031Z,22.60
2022-08-27T09:31:16.258Z,22.60
2022-08-27T09:32:24.621Z,22.60
2022-08-27T09:33:26.687Z,22.50
2022-08-27T09:34:47.666Z,22.60
2022-08-27T09:35:52.233Z,22.70
2022-08-27T09:37:05.712Z,22.70
2022-08-27T09:38:10.504Z,22.70
2022-08-27T09:39:14.840Z,22.70
2022-08-27T09:40:24.451Z,22.70
2022-08-27T09:41:31.679Z,22.70
2022-08-27T09:42:39.670Z,22.70
2022-08-27T09:43:43.789Z,22.70
2022-08-27T09:44:52.957Z,22.80
2022-08-27T09:45:58.056Z,22.80
2022-08-27T09:47:04.749Z,22.80
2022-08-27T09:48:10.818Z,22.80
2022-08-27T09:49:16.287Z,22.80
2022-08-27T09:50:21.967Z,22.80
2022-08-27T09:51:27.311Z,22.80
2022-08-27T09:52:37.722Z,22.80
2022-08-27T09:53:47.684Z,22.80
2022-08-27T09:54:55.675Z,22.80
2022-08-27T09:56:00.984Z,22.80
2022-08-27T09:57:03.159Z,22.80
2022-08-27T09:58:08.983Z,22.70
2022-08-27T09:59:19.825Z,22.70
2022-08-27T10:00:34.074Z,22.70
2022-08-27T10:01:49.071Z,22.60
2022-08-27T10:02:55.072Z,22.60
2022-08-27T10:04:06.201Z,22.60
2022-08-27T10:05:18.037Z,22.50
2022-08-27T10:06:28.369Z,22.60
2022-08-27T10:07:39.036Z,22.60
2022-08-27T10:08:43.667Z,22.50
2022-08-27T10:09:53.077Z,22.40
2022-08-27T10:10:59.307Z,22.40
2022-08-27T10:12:11.888Z,22.40
2022-08-27T10:13:20.038Z,22.30
2022-08-27T10:14:29.514Z,22.30
2022-08-27T10:15:43.245Z,22.30
2022-08-27T10:17:21.188Z,22.10
2022-08-27T10:18:33.851Z,22.20
2022-08-27T10:19:52.371Z,22.20
2022-08-27T10:21:05.980Z,22.20
2022-08-27T10:22:20.545Z,22.20
2022-08-27T10:23:31.498Z,22.30
2022-08-27T10:24:42.979Z,22.30
2022-08-27T10:25:55.542Z,22.30
2022-08-27T10:27:09.796Z,22.30
2022-08-27T10:28:24.343Z,22.30
2022-08-27T10:29:37.778Z,22.30
2022-08-27T10:30:53.668Z,22.30
2022-08-27T10:32:08.110Z,22.30
2022-08-27T10:33:22.850Z,22.30
2022-08-27T10:34:39.768Z,22.20
2022-08-27T10:35:54.548Z,22.20
2022-08-27T10:37:11.797Z,22.20
2022-08-27T10:38:23.484Z,22.10
2022-08-27T10:39:41.631Z,22.10
2022-08-27T10:40:52.394Z,22.00
2022-08-27T10:42:02.120Z,22.00
2022-08-27T10:43:18.994Z,22.00
2022-08-27T10:44:43.612Z,22.10
2022-08-27T10:45:52.585Z,22.00
2022-08-27T10:47:10.207Z,22.00
2022-08-27T10:48:24.480Z,21.90
2022-08-27T10:49:39.879Z,21.90
2022-08-27T10:50:49.678Z,21.90
2022-08-27T10:52:00.321Z,21.90
2022-08-27T10:53:08.845Z,21.90
2022-08-27T10:54:22.769Z,21.90
2022-08-27T10:55:30.988Z,21.90
2022-08-27T10:56:39.189Z,21.90
2022-08-27T10:58:07.275Z,22.00
2022-08-27T10:59:18.202Z,22.00
2022-08-27T11:00:23.663Z,22.10
2022-08-27T11:01:34.064Z,22.20
2022-08-27T11:02:42.799Z,22.20
2022-08-27T11:03:48.139Z,22.30
2022-08-27T11:04:57.622Z,22.40
2022-08-27T11:06:03.394Z,22.50
2022-08-27T11:07:14.553Z,22.60
2022-08-27T11:08:22.479Z,22.70
2022-08-27T11:09:34.703Z,22.80
2022-08-27T11:10:40.446Z,22.90
2022-08-27T11:13:12.948Z,23.20
2022-08-27T11:14:24.969Z,23.40
2022-08-27T11:15:32.022Z,23.60
2022-08-27T11:16:42.264Z,23.70
2022-08-27T11:17:57.016Z,23.90
2022-08-27T11:19:02.858Z,24.00
2022-08-27T11:20:14.780Z,24.20
2022-08-27T11:21:25.078Z,24.20
2022-08-27T11:22:34.904Z,24.20
2022-08-27T11:23:43.496Z,24.20
2022-08-27T11:24:53.989Z,24.20
2022-08-27T11:26:02.006Z,24.30
2022-08-27T11:27:08.254Z,24.30
2022-08-27T11:28:12.874Z,24.30
2022-08-27T11:29:29.679Z,24.40
2022-08-27T11:30:44.938Z,24.50
2022-08-27T11:31:56.626Z,24.40
2022-08-27T11:33:13.673Z,24.30
2022-08-27T11:34:22.949Z,24.40
2022-08-27T11:35:34.772Z,24.40
2022-08-27T11:37:02.676Z,24.40
2022-08-27T11:38:27.518Z,24.50
2022-08-27T11:39:51.119Z,24.40
2022-08-27T11:41:17.159Z,24.30
2022-08-27T11:42:28.670Z,24.30
2022-08-27T11:43:35.274Z,24.20
2022-08-27T11:44:42.507Z,24.20
2022-08-27T11:45:56.231Z,24.10
2022-08-27T11:47:11.562Z,24.00
2022-08-27T11:48:22.107Z,23.80
2022-08-27T11:49:30.561Z,23.80
2022-08-27T11:50:34.937Z,23.70
2022-08-27T11:51:40.076Z,23.60
2022-08-27T11:52:55.849Z,23.50
2022-08-27T11:54:00.049Z,23.40
2022-08-27T11:55:15.472Z,23.40
2022-08-27T11:56:37.346Z,23.30
2022-08-27T11:57:40.601Z,23.30
2022-08-27T11:58:52.618Z,23.30
2022-08-27T11:59:56.568Z,23.20
2022-08-27T12:01:04.312Z,23.30
2022-08-27T12:02:21.727Z,23.20
2022-08-27T12:03:29.582Z,23.10
2022-08-27T12:04:36.590Z,23.10
2022-08-27T12:05:44.711Z,23.00
2022-08-27T12:06:53.085Z,23.00
2022-08-27T12:07:57.585Z,23.00
2022-08-27T12:09:13.178Z,23.00
2022-08-27T12:10:36.633Z,22.90
2022-08-27T12:11:45.764Z,22.90
2022-08-27T12:13:03.938Z,22.90
2022-08-27T12:14:18.166Z,22.90
2022-08-27T12:15:33.237Z,22.80
2022-08-27T12:16:44.525Z,22.80
2022-08-27T12:17:58.523Z,22.90
2022-08-27T12:19:24.983Z,22.80
2022-08-27T12:20:36.674Z,22.80
2022-08-27T12:21:53.135Z,22.70
2022-08-27T12:23:30.639Z,22.70
2022-08-27T12:24:50.228Z,22.70
2022-08-27T12:26:18.782Z,22.70
2022-08-27T12:27:34.619Z,22.70
2022-08-27T12:28:37.744Z,22.70
2022-08-27T12:29:42.311Z,22.80
2022-08-27T12:30:50.524Z,22.80
2022-08-27T12:32:00.329Z,22.80
2022-08-27T12:33:13.379Z,22.90
2022-08-27T12:34:19.068Z,22.90
2022-08-27T12:35:30.460Z,23.00
2022-08-27T12:36:34.885Z,23.10
2022-08-27T12:37:44.428Z,23.20
2022-08-27T12:38:50.697Z,23.20
2022-08-27T12:39:56.670Z,23.20
2022-08-27T12:41:03.865Z,23.20
2022-08-27T12:42:14.878Z,23.20
2022-08-27T12:43:21.201Z,23.20
2022-08-27T12:44:26.292Z,23.30
2022-08-27T12:45:30.776Z,23.30
2022-08-27T12:46:36.313Z,23.30
2022-08-27T12:47:42.569Z,23.30
2022-08-27T12:48:58.245Z,23.40
2022-08-27T12:50:14.038Z,23.40
2022-08-27T12:51:24.011Z,23.40
2022-08-27T12:52:44.446Z,23.40
2022-08-27T12:53:55.253Z,23.50
2022-08-27T12:55:09.566Z,23.50
2022-08-27T12:56:40.770Z,23.60
2022-08-27T12:57:52.255Z,23.60
2022-08-27T12:59:08.619Z,23.60
2022-08-27T13:00:18.865Z,23.70
2022-08-27T13:01:33.258Z,23.60
2022-08-27T13:02:50.305Z,23.70
2022-08-27T13:03:54.902Z,23.80
2022-08-27T13:05:02.335Z,23.90
2022-08-27T13:06:17.205Z,24.00
2022-08-27T13:07:26.233Z,24.10
2022-08-27T13:08:35.475Z,24.10
2022-08-27T13:09:40.001Z,24.10
2022-08-27T13:10:43.099Z,24.10
2022-08-27T13:11:47.806Z,24.00
2022-08-27T13:13:07.267Z,24.00
2022-08-27T13:14:12.396Z,24.00
2022-08-27T13:15:18.095Z,24.10
2022-08-27T13:16:21.875Z,24.10
2022-08-27T13:17:25.927Z,24.00
2022-08-27T13:18:30.090Z,24.00
2022-08-27T13:19:36.822Z,23.90
2022-08-27T13:20:40.322Z,23.80
2022-08-27T13:21:52.061Z,23.80
2022-08-27T13:22:54.441Z,23.90
2022-08-27T13:24:00.307Z,23.90
2022-08-27T13:25:04.888Z,23.90
2022-08-27T13:26:14.333Z,23.90
2022-08-27T13:27:16.490Z,24.00
2022-08-27T13:28:23.533Z,24.00
2022-08-27T13:29:28.506Z,24.10
2022-08-27T13:30:36.345Z,24.00
2022-08-27T13:31:40.882Z,24.10
2022-08-27T13:32:43.519Z,24.10
2022-08-27T13:33:48.988Z,24.30
2022-08-27T13:34:52.108Z,24.50
2022-08-27T13:35:57.401Z,24.70
2022-08-27T13:37:03.946Z,24.80
2022-08-27T13:38:07.328Z,25.00
2022-08-27T13:39:09.365Z,25.00
2022-08-27T13:40:28.648Z,25.10
2022-08-27T13:41:34.160Z,25.10
2022-08-27T13:42:42.032Z,25.10
2022-08-27T13:43:51.107Z,25.10
2022-08-27T13:45:01.477Z,25.10
2022-08-27T13:46:07.312Z,25.10
2022-08-27T13:47:16.360Z,25.10
2022-08-27T13:48:19.731Z,25.00
2022-08-27T13:49:29.540Z,25.00
2022-08-27T13:50:34.457Z,25.00
2022-08-27T13:51:37.744Z,25.00
2022-08-27T13:53:01.983Z,25.00
2022-08-27T13:54:13.188Z,24.90
2022-08-27T13:55:18.696Z,24.80
2022-08-27T13:56:26.256Z,24.70
2022-08-27T13:57:31.758Z,24.70
2022-08-27T13:58:35.670Z,24.60
2022-08-27T13:59:43.264Z,24.50
2022-08-27T14:00:45.796Z,24.50
2022-08-27T14:01:57.997Z,24.40
2022-08-27T14:03:01.423Z,24.40
2022-08-27T14:04:07.624Z,24.40
2022-08-27T14:05:14.304Z,24.50
2022-08-27T14:06:35.469Z,24.50
2022-08-27T14:07:42.826Z,24.50
2022-08-27T14:08:45.095Z,24.50
2022-08-27T14:09:54.487Z,24.50
2022-08-27T14:11:04.830Z,24.40
2022-08-27T14:12:10.552Z,24.40
2022-08-27T14:13:22.494Z,24.30
2022-08-27T14:14:25.859Z,24.40
2022-08-27T14:15:33.628Z,24.30
2022-08-27T14:16:39.716Z,24.40
2022-08-27T14:17:45.923Z,24.40
2022-08-27T14:18:59.156Z,24.30